Ahacha, Japan

1:16 PM JST on May 28, 2017 (GMT +0900)
Naha | | Change Station

Elev 26 ft 26.18 °N, 127.65 °E | Updated 8 minutes ago

Rain
Rain
66 °F
Feels Like 66 °F
N
13
Wind Variable Wind from NNE

Today
High -- | Low -- °F
--% Chance of Precip.
Yesterday
High -- | Low -- °F
Precip. -- in
Pressure 29.95 in
Visibility 6.2 miles
Clouds Few 800 ft
Scattered Clouds 5000 ft
Overcast 7000 ft
Dew Point 63 °F
Humidity 88%
Rainfall 0.00 in
Snow Depth Not available.
5:37 AM 7:15 PM
Waxing Crescent, 8% visible
SPECI ROAH 280408Z 02011KT 9999 -RA FEW008 SCT050 OVC070 19/17 Q1014 RMK 1ST008 3SC050 8AS070 A2995
Pressure 29.95 in
Visibility 6.2 miles
Clouds Few 800 ft
Scattered Clouds 5000 ft
Overcast 7000 ft
Dew Point 63 °F
Humidity 88%
Rainfall 0.00 in
Snow Depth Not available.
5:37 AM 7:15 PM
Waxing Crescent, 8% visible
SPECI ROAH 280408Z 02011KT 9999 -RA FEW008 SCT050 OVC070 19/17 Q1014 RMK 1ST008 3SC050 8AS070 A2995

Get Severe Weather Alerts

Thanks for signing up!

Be on the lookout for a verification email in your inbox.

You'll start receiving the daily forecast at 6 AM.

×

10-Day Weather Forecast

No radar image for this location.
×

Almanac

Astronomy

May. 28, 2017 Rise Set
Actual Time
Civil Twilight
Nautical Twilight
Astronomical Twilight
Moon
Length of Visible Light
Length of Day
Tomorrow will be .
, % of the Moon is Illuminated

Today's Extremes

Country Highs Country Lows

Community

WunderPhotos

Category 6

Welcome to Category 6. This is the collective home for Weather Underground's featured writeups by Dr. Jeff Masters (right), Bob Henson (left), Chris Burt, and other regular contributors.

Nearby

Air Quality

  Air Quality AQ Index Pollutant
Not available.

Snow Depth

Station Depth Elevation

Earthquake Activity

City Distance Mag. Time & Date
Minimum magnitude displayed is 2.5.

Coastal Water Temperatures

Place Temperature

Stations

Nearby Weather Stations

Station Location Temp. Windchill Dew Point Humidity Wind Precip. Elev Updated Type